Airports Austria Innsbruck Airport

Innsbruck Airport (LOWI / INN)

Facts about Innsbruck Airport

Name Innsbruck Airport
City Innsbruck
Country Austria
ICAO code LOWI
IATA code INN
Elevation 581.2536 meters (1907 feet)

Weather

METAR

Metar data retrieved Saturday, 20 July 2024 at 00:55 UTC (25 minutes ago)

LOWI 200020Z AUTO VRB02KT 9999 FEW005 17/17 Q1018

Live traffic

Navigraph Charts (account required)